Latest Weather Observations for Mount Gambier

IDS60801

Issued at 10:35 pm CDT Friday 24 October 2014 (issued every 30 minutes, with the page automatically refreshed every 10 minutes)

About weather observations | Map of weather stations | Latest weather observations for SA | Other Formats
Station Details ID: 026021 Name: MOUNT GAMBIER AERO Lat: -37.75 Lon: 140.77 Height: 63.0 m
Data from the previous 72 hours. | See also: Recent months at Mount Gambier
Date/Time
CDT
Temp
°C
App
Temp
°C
Dew
Point
Rel
Hum
%
Delta-T
°C
Wind Press
QNH
hPa
Press
MSL
hPa
Rain
since 9 am
mm
Dir
 
Spd
km/h
Gust
km/h
Spd
kts
Gust
kts
24/10:30pm 13.7 10.6 10.2 79 1.8 SSW 17 22 9 12 1017.1 - 0.0
24/10:00pm 13.9 11.2 10.3 79 1.9 SSW 15 22 8 12 1016.8 - 0.0
24/09:30pm 14.0 10.9 10.2 78 2.0 S 17 26 9 14 1016.5 - 0.0
24/09:00pm 14.1 10.9 10.1 77 2.1 SSW 17 22 9 12 1016.4 1016.4 0.0
24/08:30pm 14.4 11.8 10.8 79 1.9 SSW 15 19 8 10 1016.0 - 0.0
24/08:00pm 14.6 10.9 10.2 75 2.3 SW 20 28 11 15 1015.6 - 0.0
24/07:30pm 14.8 11.1 10.2 74 2.4 SW 20 28 11 15 1015.4 - 0.0
24/07:00pm 15.2 12.4 11.5 78 2.0 WSW 17 26 9 14 1015.1 - 0.0
24/06:30pm 15.5 12.0 11.0 74 2.4 WSW 20 28 11 15 1014.6 - 0.0
24/06:00pm 16.0 11.8 11.0 72 2.7 W 24 30 13 16 1014.4 1014.4 0.0
24/05:30pm 16.3 12.5 11.1 71 2.8 W 22 30 12 16 1014.0 - 0.0
24/05:00pm 16.6 12.4 11.2 70 2.9 W 24 35 13 19 1013.9 - 0.0
24/04:30pm 17.1 11.8 11.4 69 3.1 W 30 35 16 19 1013.6 - 0.0
24/04:00pm 18.3 13.0 11.4 64 3.8 WSW 30 37 16 20 1013.3 - 0.0
24/03:30pm 20.4 15.7 12.0 58 4.7 WSW 28 37 15 20 1013.1 - 0.0
24/03:00pm 21.7 17.0 10.8 50 6.0 W 26 33 14 18 1012.8 1012.7 0.0
24/02:30pm 23.0 17.4 8.6 39 7.7 W 28 41 15 22 1012.8 - 0.0
24/02:00pm 23.0 17.6 8.1 38 7.9 WNW 26 35 14 19 1012.9 - 0.0
24/01:30pm 21.9 16.9 10.9 49 6.1 WNW 28 33 15 18 1013.0 - 0.0
24/01:00pm 21.1 17.3 11.2 53 5.5 NW 22 30 12 16 1013.0 - 0.0
24/12:30pm 19.8 16.6 11.3 58 4.7 W 19 26 10 14 1013.1 - 0.0
24/12:00pm 19.0 16.7 11.8 63 4.0 W 15 19 8 10 1013.1 1013.0 0.0
24/11:32am 17.7 13.3 11.7 68 3.3 W 26 35 14 19 1013.5 - 0.0
24/11:30am 17.6 13.2 11.8 69 3.2 WNW 26 35 14 19 1013.5 - 0.0
24/11:00am 17.8 14.8 12.6 71 2.9 WNW 20 30 11 16 1013.6 - 0.0
24/10:30am 15.2 12.2 12.5 84 1.5 WNW 20 32 11 17 1013.7 - 0.0
24/10:00am 14.6 10.1 12.6 88 1.1 WNW 28 35 15 19 1013.8 - 0.0
24/09:30am 14.4 11.8 13.3 93 0.6 NW 19 24 10 13 1013.3 - 0.0
24/09:00am 13.2 11.2 12.8 97 0.2 NNW 15 19 8 10 1012.8 1012.7 0.0
24/08:40am 12.6 10.9 12.6 100 0.0 NNW 13 17 7 9 1012.2 - 0.0
24/08:32am 12.8 11.1 12.6 99 0.1 NNW 13 15 7 8 1012.2 - 0.0
24/08:30am 12.7 11.5 12.7 100 0.0 NNW 11 15 6 8 1012.2 - 0.0
24/08:00am 12.3 11.2 11.9 97 0.2 NW 9 13 5 7 1012.1 - 0.0
24/07:58am 12.1 11.4 11.9 99 0.1 NW 7 13 4 7 1012.1 - 0.0
24/07:30am 11.4 8.9 11.2 99 0.1 N 15 20 8 11 1012.0 - 0.0
24/07:27am 11.3 8.8 11.1 99 0.1 N 15 19 8 10 1012.0 - 0.0
24/07:22am 11.3 9.2 11.1 99 0.1 N 13 19 7 10 1012.0 - 0.0
24/07:00am 9.9 8.5 9.5 97 0.2 N 7 9 4 5 1012.1 - 0.0
24/06:30am 8.8 8.5 8.8 100 0.0 CALM 0 0 0 0 1011.8 - 0.0
24/06:00am 8.4 6.7 7.6 95 0.4 NE 6 7 3 4 1011.3 1011.3 0.0
24/05:46am 7.9 6.0 7.7 99 0.1 NE 7 9 4 5 1011.3 - 0.0
24/05:30am 7.5 6.1 7.1 97 0.2 NNE 4 7 2 4 1011.3 - 0.0
24/05:13am 7.5 6.5 7.3 99 0.1 N 2 7 1 4 1011.4 - 0.0
24/05:00am 8.2 7.7 7.8 97 0.2 CALM 0 2 0 1 1011.4 - 0.0
24/04:30am 8.1 7.6 7.7 97 0.2 CALM 0 0 0 0 1011.3 - 0.0
24/04:00am 8.1 6.3 7.9 99 0.1 NNE 7 7 4 4 1011.2 - 0.0
24/03:47am 8.3 7.4 7.9 97 0.2 W 2 7 1 4 1011.3 - 0.0
24/03:46am 8.3 7.8 7.9 97 0.2 CALM 0 7 0 4 1011.3 - 0.0
24/03:30am 8.7 8.3 8.3 97 0.2 CALM 0 0 0 0 1011.2 - 0.0
24/03:03am 8.9 8.6 8.5 97 0.2 CALM 0 0 0 0 1011.8 - 0.0
24/03:00am 8.9 8.6 8.7 99 0.1 CALM 0 0 0 0 1011.8 1011.7 0.0
24/02:30am 8.1 7.7 8.1 100 0.0 CALM 0 0 0 0 1012.1 - 0.0
24/02:00am 9.5 9.3 9.1 97 0.2 CALM 0 0 0 0 1012.3 - 0.0
24/01:30am 10.3 10.4 10.1 99 0.1 CALM 0 0 0 0 1012.8 - 0.0
24/01:00am 9.6 9.4 9.0 96 0.3 CALM 0 0 0 0 1013.3 - 0.0
24/12:30am 10.0 9.9 9.4 96 0.3 CALM 0 2 0 1 1013.7 - 0.0
24/12:00am 10.1 8.9 9.5 96 0.3 SSW 6 7 3 4 1013.9 1013.8 0.0
 
Date/Time
CDT
Temp
°C
App
Temp
°C
Dew
Point
Rel
Hum
%
Delta-T
°C
Wind Press
QNH
hPa
Press
MSL
hPa
Rain
since 9 am
mm
Dir
 
Spd
km/h
Gust
km/h
Spd
kts
Gust
kts
23/11:30pm 10.3 8.6 9.9 97 0.2 S 9 9 5 5 1014.0 - 0.0
23/11:00pm 10.7 9.4 10.1 96 0.3 SSW 7 9 4 5 1014.5 - 0.0
23/10:30pm 11.2 10.1 10.6 96 0.3 S 7 9 4 5 1014.8 - 0.0
23/10:28pm 11.2 10.0 10.4 95 0.4 SSE 7 9 4 5 1014.8 - 0.0
23/10:00pm 12.0 11.2 11.0 94 0.5 SE 6 7 3 4 1014.9 - 0.0
23/09:30pm 11.7 10.2 10.7 94 0.5 S 9 11 5 6 1015.0 - 0.0
23/09:00pm 12.2 10.8 10.9 92 0.7 S 9 9 5 5 1014.8 1014.8 0.0
23/08:30pm 13.0 11.8 11.5 91 0.8 S 9 11 5 6 1014.7 - 0.0
23/08:00pm 13.7 12.5 11.6 87 1.1 S 9 11 5 6 1014.6 - 0.0
23/07:30pm 14.6 12.4 12.0 84 1.4 S 15 19 8 10 1014.7 - 0.0
23/07:00pm 15.5 13.3 12.2 81 1.8 S 15 19 8 10 1014.3 - 0.0
23/06:30pm 16.8 13.9 12.3 75 2.5 S 19 24 10 13 1014.5 - 0.0
23/06:00pm 17.8 13.9 12.2 70 3.1 S 24 30 13 16 1014.6 1014.6 0.0
23/05:30pm 19.2 16.1 12.2 64 3.9 S 20 26 11 14 1014.7 - 0.0
23/05:00pm 20.1 16.9 12.0 59 4.5 S 20 28 11 15 1014.7 - 0.0
23/04:30pm 21.0 17.9 12.1 56 5.0 S 20 28 11 15 1014.7 - 0.0
23/04:00pm 22.3 18.8 10.9 48 6.3 SE 20 33 11 18 1014.6 - 0.0
23/03:30pm 21.7 18.2 11.0 50 5.9 SE 20 30 11 16 1015.0 - 0.0
23/03:00pm 21.5 18.5 11.9 54 5.4 SE 19 30 10 16 1015.5 1015.5 0.0
23/02:30pm 20.3 17.0 11.7 57 4.8 SE 20 30 11 16 1016.1 - 0.0
23/02:00pm 20.3 16.3 11.9 58 4.7 SE 24 33 13 18 1016.3 - 0.0
23/01:30pm 19.6 15.9 11.4 59 4.5 SE 22 30 12 16 1016.8 - 0.0
23/01:00pm 19.1 14.5 11.2 60 4.3 SE 26 32 14 17 1017.2 - 0.0
23/12:30pm 18.4 14.2 11.2 63 3.9 ESE 24 32 13 17 1017.7 - 0.0
23/12:00pm 16.8 12.6 11.0 68 3.1 SE 24 30 13 16 1018.1 1018.1 0.0
23/11:28am 15.9 11.3 11.0 72 2.6 SE 26 32 14 17 1018.6 - 0.0
23/11:00am 15.2 10.5 10.5 73 2.5 ESE 26 35 14 19 1018.9 - 0.0
23/10:30am 14.8 10.5 10.8 77 2.1 SE 24 32 13 17 1019.2 - 0.0
23/10:00am 14.2 9.0 10.4 78 2.0 ESE 28 35 15 19 1019.5 - 0.0
23/09:30am 14.0 9.3 10.6 80 1.8 SE 26 33 14 18 1019.7 - 0.0
23/09:00am 13.7 8.9 10.4 80 1.7 SE 26 35 14 19 1019.6 1019.6 0.0
23/08:30am 13.4 8.2 10.1 80 1.7 SE 28 39 15 21 1019.7 - 0.0
23/08:00am 13.3 8.5 10.2 81 1.6 SE 26 39 14 21 1019.7 - 0.0
23/07:30am 13.1 7.5 10.0 81 1.6 SE 30 41 16 22 1019.7 - 0.0
23/07:00am 13.0 8.5 10.1 82 1.5 SE 24 35 13 19 1019.9 - 0.0
23/06:30am 12.8 8.3 10.1 84 1.4 SE 24 33 13 18 1019.7 - 0.0
23/06:00am 12.8 7.6 10.1 84 1.4 SE 28 41 15 22 1019.5 1019.5 0.0
23/05:30am 12.8 8.4 10.5 86 1.2 SE 24 32 13 17 1019.4 - 0.0
23/05:00am 12.6 8.7 10.9 89 0.9 SSE 22 30 12 16 1019.5 - 0.0
23/04:30am 12.5 8.6 10.8 89 0.9 SE 22 30 12 16 1019.4 - 0.0
23/04:00am 12.5 9.0 11.0 90 0.8 SE 20 30 11 16 1019.6 - 0.0
23/03:30am 12.6 8.0 10.9 89 0.9 SE 26 33 14 18 1019.4 - 0.0
23/03:00am 12.5 8.3 11.0 90 0.8 SSE 24 32 13 17 1019.7 1019.7 0.0
23/02:30am 12.6 8.0 11.1 91 0.8 SSE 26 33 14 18 1019.9 - 0.0
23/02:00am 12.7 7.7 11.0 89 0.9 SSE 28 37 15 20 1020.1 - 0.0
23/01:30am 12.8 7.4 10.9 88 1.0 SSE 30 41 16 22 1020.1 - 0.0
23/01:00am 12.7 8.1 11.2 91 0.8 SSE 26 35 14 19 1020.3 - 0.0
23/12:30am 12.9 8.7 11.2 89 0.9 SSE 24 39 13 21 1020.4 - 0.0
23/12:00am 13.0 8.9 11.3 89 0.9 SSE 24 33 13 18 1020.5 1020.5 0.0
 
Date/Time
CDT
Temp
°C
App
Temp
°C
Dew
Point
Rel
Hum
%
Delta-T
°C
Wind Press
QNH
hPa
Press
MSL
hPa
Rain
since 9 am
mm
Dir
 
Spd
km/h
Gust
km/h
Spd
kts
Gust
kts
22/11:30pm 12.9 8.8 11.4 91 0.8 SSE 24 33 13 18 1020.6 - 0.0
22/11:00pm 13.0 8.5 11.5 91 0.8 SSE 26 33 14 18 1020.9 - 0.0
22/10:30pm 13.3 10.2 11.6 89 0.9 SSE 19 30 10 16 1020.7 - 0.0
22/10:00pm 13.3 9.6 11.6 89 0.9 SSE 22 33 12 18 1020.7 - 0.0
22/09:30pm 13.3 8.4 11.4 88 1.0 SSE 28 37 15 20 1020.5 - 0.0
22/09:00pm 13.4 8.6 11.5 88 1.0 SSE 28 35 15 19 1020.5 1020.5 0.0
22/08:30pm 13.8 9.0 11.6 86 1.2 SSE 28 35 15 19 1020.2 - 0.0
22/08:00pm 13.8 8.2 11.6 86 1.2 SSE 32 39 17 21 1019.9 - 0.0
22/07:30pm 13.9 8.4 11.9 88 1.1 SSE 32 39 17 21 1019.6 - 0.0
22/07:00pm 14.0 8.4 11.6 85 1.3 S 32 39 17 21 1019.2 - 0.0
22/06:30pm 14.3 8.8 11.9 85 1.3 S 32 39 17 21 1018.6 - 0.0
22/06:00pm 14.9 9.3 12.1 83 1.5 S 33 41 18 22 1018.2 1018.2 0.0
22/05:35pm 15.4 9.7 11.9 79 1.9 S 33 41 18 22 1018.0 - 0.0
22/05:30pm 16.0 10.5 12.6 80 1.9 S 33 41 18 22 1018.0 - 0.0
22/05:02pm 17.3 12.7 12.4 73 2.7 S 28 33 15 18 1017.6 - 0.0
22/05:00pm 17.5 13.0 12.5 72 2.8 S 28 33 15 18 1017.6 - 0.0
22/04:30pm 16.5 11.1 12.3 76 2.3 S 32 41 17 22 1017.6 - 0.0
22/04:27pm 17.2 11.8 12.3 73 2.7 S 32 39 17 21 1017.5 - 0.0
22/04:00pm 18.2 12.8 12.7 70 3.1 S 33 41 18 22 1017.4 - 0.0
22/03:30pm 18.7 12.9 12.6 67 3.4 S 35 44 19 24 1017.4 - 0.0
22/03:00pm 20.3 14.9 12.7 61 4.3 SSW 33 41 18 22 1017.4 1017.4 0.0
22/02:30pm 21.5 16.1 12.9 58 4.9 SSW 33 41 18 22 1017.3 - 0.0
22/02:00pm 22.1 16.9 12.8 55 5.3 SSW 32 37 17 20 1017.3 - 0.0
22/01:30pm 22.0 16.6 12.9 56 5.2 SSW 33 39 18 21 1017.3 - 0.0
22/01:00pm 23.9 18.8 13.2 51 6.2 SSW 32 37 17 20 1016.9 - 0.0
22/12:30pm 27.2 23.9 11.7 38 8.9 SSW 20 28 11 15 1016.7 - 0.0
22/12:00pm 26.7 23.6 12.2 40 8.4 SW 20 30 11 16 1016.7 1016.7 0.0
22/11:30am 27.2 23.6 9.8 33 9.7 SW 19 26 10 14 1016.8 - 0.0
22/11:00am 27.5 24.3 10.0 33 9.8 NW 17 24 9 13 1017.0 - 0.0
22/10:30am 25.8 22.3 8.9 34 9.2 N 17 22 9 12 1016.7 - 0.0
22/10:00am 23.7 21.9 11.0 44 7.1 N 11 15 6 8 1017.1 - 0.0
22/09:30am 23.2 20.2 9.1 40 7.6 NW 15 19 8 10 1017.4 - 0.0
22/09:00am 23.9 22.4 9.3 39 7.9 N 7 11 4 6 1017.2 1017.2 0.0
22/08:30am 20.6 18.6 8.6 46 6.3 N 9 13 5 7 1017.2 - 0.0
22/08:00am 19.9 17.8 8.4 47 6.0 N 9 11 5 6 1016.9 - 0.0
22/07:30am 19.1 16.6 8.0 48 5.7 NNE 11 11 6 6 1016.6 - 0.0
22/07:00am 18.2 15.7 8.3 52 5.1 N 11 17 6 9 1016.6 - 0.0
22/06:30am 14.1 11.5 7.9 66 3.1 N 11 13 6 7 1016.7 - 0.0
22/06:00am 16.1 13.5 7.7 57 4.2 W 11 19 6 10 1016.8 1016.8 0.0
22/05:30am 17.1 14.3 6.8 50 5.1 N 11 13 6 7 1016.5 - 0.0
22/05:00am 17.0 15.8 7.9 55 4.6 W 4 9 2 5 1016.8 - 0.0
22/04:30am 17.6 15.2 7.2 50 5.2 W 9 15 5 8 1016.8 - 0.0
22/04:00am 18.8 15.2 6.6 45 6.1 N 15 20 8 11 1016.3 - 0.0
22/03:30am 18.7 15.4 6.2 44 6.2 N 13 15 7 8 1016.5 - 0.0
22/03:00am 19.4 16.1 6.4 42 6.5 N 13 15 7 8 1016.7 1016.7 0.0
22/02:30am 21.2 17.3 5.5 36 7.8 NNE 15 19 8 10 1016.7 - 0.0
22/02:00am 20.3 16.1 5.8 38 7.2 N 17 20 9 11 1017.0 - 0.0
22/01:30am 20.7 15.9 5.6 37 7.5 NNE 20 32 11 17 1016.9 - 0.0
22/01:00am 20.0 15.9 6.2 40 6.9 NE 17 22 9 12 1016.6 - 0.0
22/12:30am 20.4 16.1 5.4 37 7.4 NE 17 19 9 10 1017.7 - 0.0
22/12:00am 20.0 16.7 6.5 41 6.8 NE 13 15 7 8 1017.9 1017.9 0.0
 
Date/Time
CDT
Temp
°C
App
Temp
°C
Dew
Point
Rel
Hum
%
Delta-T
°C
Wind Press
QNH
hPa
Press
MSL
hPa
Rain
since 9 am
mm
Dir
 
Spd
km/h
Gust
km/h
Spd
kts
Gust
kts
21/11:30pm 18.8 16.1 9.1 53 5.1 NE 13 15 7 8 1018.1 - 0.0
21/11:00pm 19.4 16.8 9.4 52 5.3 NE 13 15 7 8 1018.5 - 0.0

Other Formats:

Comma delimited format used in spreadsheet applications
http://www.bom.gov.au/fwo/IDS60801/IDS60801.94821.axf

JavaScript Object Notation format (JSON) in row-major order
http://www.bom.gov.au/fwo/IDS60801/IDS60801.94821.json